Řízení letového provozu České republiky  
Aktualizace dat:  27.03.2017 12:30:28 UTC English version
   METEO Zobrazení stránky:  27.03.2017 12:32:52 UTC  
vysvětlivky
METAR EDDB 271220Z VRB03KT CAVOK 16/M02 Q1026 NOSIG=
METAR EDDC 271220Z VRB02KT CAVOK 14/M02 Q1025 NOSIG=
METAR EDDE 271220Z 03006KT 330V090 CAVOK 14/01 Q1025 NOSIG=
METAR EDDF 271220Z 11009KT 070V180 CAVOK 17/M03 Q1023 NOSIG=
METAR EDDM 271220Z 09013KT CAVOK 14/M03 Q1023 NOSIG=
METAR EDDN 271220Z VRB06KT CAVOK 17/M04 Q1024 NOSIG=
METAR EDDP 271220Z VRB02KT CAVOK 15/M02 Q1026 NOSIG=
METAR EDDT 271220Z 27006KT 240V360 CAVOK 16/M02 Q1026 NOSIG=
METAR EDQM 271220Z 10004KT 060V150 CAVOK 13/M05 Q1025=
METAR EPBY 271200Z 30014KT 270V330 CAVOK 15/02 Q1023 =
METAR EPGD 271200Z 28014KT CAVOK 15/06 Q1021 =
METAR EPKK 271200Z 24013KT 210V270 CAVOK 13/M01 Q1024 =
METAR EPKT 271200Z 29010KT 230V340 CAVOK 14/M01 Q1024 =
METAR EPLL 271200Z 28013KT CAVOK 14/00 Q1023 =
METAR EPPO 271200Z 29011KT 270V330 CAVOK 16/02 Q1025 =
METAR EPRZ 271200Z 27014KT CAVOK 14/01 Q1022 =
METAR EPWA 271200Z 29011KT 250V320 CAVOK 16/04 Q1022 NOSIG=
METAR EPWR 271200Z 27008KT 230V290 CAVOK 14/00 Q1026 =
METAR LHBP 271200Z 24005KT 180V300 CAVOK 12/M03 Q1026 NOSIG=
METAR LHSM 271145Z 31004KT CAVOK 11/M03 Q1027 NOSIG=
METAR LKCV 271200Z 06004KT 320V100 CAVOK 12/M03 Q1026 NOSIG=
METAR LKKB 271200Z VRB04KT CAVOK 12/M02 Q1027 NOSIG=
METAR LKKU 271200Z 05005KT CAVOK 14/M06 Q1026=
METAR LKKV 271230Z 12006KT 080V170 CAVOK 14/M07 Q1025 RMK REG QNH 1022=
METAR LKLN 271200Z AUTO 14005KT 090V230 CAVOK 14/M03 Q1026=
METAR LKMT 271230Z VRB02KT CAVOK 13/M03 Q1026 NOSIG RMK REG QNH 1022=
METAR LKNA 271200Z 04004KT 310V100 CAVOK 11/M03 Q1026 NOSIG=
METAR LKPD 271200Z 23003KT 200V280 CAVOK 13/M03 Q1026 NOSIG=
METAR LKPR 271230Z VRB03KT CAVOK 13/M05 Q1026 NOSIG RMK REG QNH 1022=
METAR LKTB 271230Z 17005KT 130V220 CAVOK 14/M04 Q1026 NOSIG RMK REG QNH 1022=
METAR LKVO 271200Z VRB04KT CAVOK 13/M01 Q1026=
METAR LOWI 271220Z VRB03KT CAVOK 16/02 Q1021 NOSIG=
METAR LOWL 271220Z 11010KT 070V150 CAVOK 14/M10 Q1025 NOSIG=
METAR LOWS 271220Z 06005KT 010V120 CAVOK 17/M01 Q1022 NOSIG=
METAR LOWW 271220Z 26003KT 200V350 CAVOK 13/M03 Q1026 NOSIG=
METAR LZIB 271200Z 10005KT 060V160 CAVOK 13/M01 Q1026 NOSIG=
METAR LZKZ 271200Z 24005KT 190V330 CAVOK 12/M04 Q1024 NOSIG=
METAR LZPP 271200Z 32006KT CAVOK 14/M06 Q1026=
METAR LZSL 271200Z 18004KT 130V250 CAVOK 14/M05 Q1024=
METAR LZTT 271200Z 27009KT 240V300 9999 FEW060 11/M07 Q1023 NOSIG=
METAR LZZI 271200Z 12005KT 080V200 CAVOK 14/M04 Q1025=